Tiempo atmosférico en la estación meteorológica de Alcalá La Real, Jaén (915 m.)



Fecha
DESCASC
Temp. máxima en grados centígrados (hora)
DESCASC
Temp. mínima en grados centígrados (hora)
DESCASC
Temp. media en grados centígrados
DESCASC
Racha de viento máxima en m/sg (hora)
DESCASC
Velocidad máxima media en intervalos de 10 minutos(hora)
DESCASC
Precipitaciones diarias en mm
DESCASC
Precipitaciones de 00:00 a 06:00 en mm
DESCASC
Precipitaciones de 06:00 a 12:00 en mm
DESCASC
Precipitaciones de 12:00 a 18:00 en mm
DESCASC
Precipitaciones de 18:00 a 24:00 en mm
DESCASC
18-01-2018 15.8 (15:10) 4.6 (06:30) 10.2 5 (05:00) 3.06 (05:00) 0 0 0 0 0
17-01-2018 17.8 (15:30) 3 (05:50) 10.4 5.83 (07:30) 3.61 (07:20) 0 0 0 0 0
16-01-2018 12.7 (15:50) -0.6 (06:40) 6 5.56 (15:20) 3.33 (15:20) 0 0 0 0 0
15-01-2018 8.8 (13:40) -1.1 (07:00) 3.9 6.39 (13:10) 2.78 (12:50) 0 0 0 0 0
14-01-2018 5.1 (12:00) 1.7 (00:00) 3.4 4.72 (11:40) 2.22 (11:50) 5.4 0.2 0 4.6 0.6
13-01-2018 8.6 (13:30) 1.7 (00:00) 5.2 5.83 (03:30) 3.06 (04:20) 1.4 0 0 1.4 0
12-01-2018 12.4 (16:40) -1 (-00:0) 5.7 4.72 (13:50) 2.78 (23:59) 0.2 0 0.2 0 0
11-01-2018 6.2 (00:00) 1.3 (00:00) 3.7 10 (15:30) 6.39 (00:50) 1.4 0 0 0.4 1
10-01-2018 9.4 (17:00) 6.1 (00:00) 7.7 14.44 (22:20) 7.78 (22:20) 19.4 12 1 0 6.4
09-01-2018 6.4 (23:40) -2 (-00:0) 2.2 8.89 (23:30) 3.89 (23:30) 2.8 0 0 0 2.8
08-01-2018 7.1 (14:40) 0.4 (00:00) 3.7 6.11 (11:20) 2.78 (11:20) 2.8 0.4 2.2 0.2 0
07-01-2018 2.8 (13:00) -2.3 (-00:0) 0.3 5.56 (00:10) 3.33 (00:10) 2.6 0.2 0.6 1.8 0
06-01-2018 8.2 (00:40) 0 (00:00) 4.1 10 (20:00) 5.56 (19:00) 14.8 0 6.8 5 3
05-01-2018 10.4 (16:30) 6.2 (00:00) 8.3 5.83 (12:10) 2.78 (12:10) 0 0 0 0 0
04-01-2018 14.4 (12:50) 3 (06:20) 8.7 5.83 (03:30) 3.89 (03:30) 0 0 0 0 0
03-01-2018 12.3 (15:20) 2.9 (00:00) 7.6 6.67 (22:40) 4.44 (22:40) 0 0 0 0 0
02-01-2018 10.7 (16:10) 1.9 (00:00) 6.3 7.5 (14:20) 4.72 (14:20) 0 0 0 0 0
01-01-2018 13.5 (14:50) 1.4 (00:00) 7.4 6.39 (16:30) 3.61 (15:10) 0 0 0 0 0
31-12-2017 10.7 (13:50) 5.6 (00:00) 8.1 12.22 (22:20) 6.67 (22:20) 0 0 0 0 0
30-12-2017 16.5 (16:20) 5 (00:00) 10.8 5 (22:00) 3.06 (22:00) 0.2 0 0.2 0 0
29-12-2017 10.1 (15:20) 7 (00:00) 8.6 11.11 (01:30) 5.56 (01:30) 6.6 4 1.8 0.4 0.4
28-12-2017 10.8 (18:00) 5.6 (00:00) 8.2 13.61 (18:10) 6.94 (18:00) 5.8 0.2 1.4 2.2 2
27-12-2017 8.8 (07:30) 4.8 (00:00) 6.8 18.89 (07:50) 10 (07:50) 19.2 11 7.8 0.2 0.2
26-12-2017 8 (12:10) 4.4 (00:00) 6.2 8.89 (13:20) 4.72 (12:50) 7.8 1 6.6 0 0.2
25-12-2017 10.7 (13:10) 2.7 (00:00) 6.7 4.72 (15:20) 2.22 (09:40) 1.8 0 0 0.2 1.6
24-12-2017 14 (15:50) 3.6 (00:00) 8.8 6.11 (11:50) 2.78 (11:40) 0 0 0 0 0
23-12-2017 14.5 (15:30) 2.6 (00:00) 8.5 8.61 (12:50) 4.44 (12:50) 0 0 0 0 0
22-12-2017 13.1 (15:10) 1.3 (00:00) 7.2 5.56 (16:30) 3.33 (16:20) 0 0 0 0 0

Gráficas

Temp. máximas Temp. mínimas Temp. medias Precipitaciones Rachas de viento máximas Velocidades máximas media en intervalos de 10 minutos

Datos horarios

Fecha y hora oficial Temperatura (ºC) Velocidad del viento (km/h) Dirección del viento Racha (km/h) Dirección de racha Precipitación (mm) Presión (hPa) Tendencia (hPa) Humedad (%)
2018-01-20 23:00:00 5.9 3 Este 8 Sudeste 0 -- -- 76
2018-01-20 22:00:00 6 0 Calma 8 Norte 0 -- -- 80
2018-01-20 21:00:00 7.1 2 Norte 6 Nordeste 0 -- -- 77
2018-01-20 20:00:00 7.3 0 Calma 5 Norte 0 -- -- 78
2018-01-20 19:00:00 9.6 3 Norte 12 Norte 0 -- -- 68
2018-01-20 18:00:00 12.2 8 Noroeste 16 Noroeste 0 -- -- 57
2018-01-20 17:00:00 13.5 8 Noroeste 19 Noroeste 0 -- -- 52
2018-01-20 16:00:00 14 8 Noroeste 19 Noroeste 0 -- -- 54
2018-01-20 15:00:00 13.2 10 Noroeste 17 Noroeste 0 -- -- 55
2018-01-20 14:00:00 13.6 7 Noroeste 18 Norte 0 -- -- 53
2018-01-20 13:00:00 12.3 7 Noroeste 14 Norte 0 -- -- 59
2018-01-20 12:00:00 10.4 6 Noroeste 13 Norte 0 -- -- 67
2018-01-20 11:00:00 7.9 7 Noroeste 12 Noroeste 0 -- -- 81
2018-01-20 10:00:00 4.3 3 Norte 6 Noroeste 0 -- -- 86
2018-01-20 09:00:00 2.8 0 Calma 8 Sudeste 0 -- -- 87
2018-01-20 08:00:00 3.9 9 Sudeste 17 Sudeste 0 -- -- 82
2018-01-20 07:00:00 3.8 7 Sudeste 13 Sudeste 0 -- -- 83
2018-01-20 06:00:00 3.6 0 Calma 13 Sudeste 0 -- -- 83
2018-01-20 05:00:00 3.4 5 Sudeste 10 Sudeste 0 -- -- 90
2018-01-20 04:00:00 4.2 3 Sudeste 11 Sudeste 0 -- -- 90
2018-01-20 03:00:00 4.2 7 Sudeste 11 Sudeste 0 -- -- 91
2018-01-20 02:00:00 4.1 0 Calma 4 Sudeste 0 -- -- 92
2018-01-20 01:00:00 5 2 Sudeste 8 Sudeste 0 -- -- 88
2018-01-20 00:00:00 5 0 Calma 4 Nordeste 0 -- -- 91
2018-01-19 23:00:00 5.3 0 Calma 3 Sudeste 0 -- -- 90
2018-01-19 22:00:00 5.4 0 Calma 7 Norte 0 -- -- 90
2018-01-19 21:00:00 6.2 0 Calma 10 Norte 0 -- -- 86
2018-01-19 20:00:00 6.7 4 Norte 11 Nordeste 0 -- -- 85
2018-01-19 19:00:00 8 0 Calma 9 Noroeste 0 -- -- 80
2018-01-19 18:00:00 11 6 Noroeste 15 Noroeste 0 -- -- 68
2018-01-19 17:00:00 12.4 6 Noroeste 21 Oeste 0 -- -- 64
2018-01-19 16:00:00 12.3 13 Noroeste 21 Noroeste 0 -- -- 65
2018-01-19 15:00:00 12.7 12 Noroeste 22 Noroeste 0 -- -- 63
2018-01-19 14:00:00 12.4 7 Norte 15 Noroeste 0 -- -- 64
2018-01-19 13:00:00 11.6 2 Este 7 Sudoeste 0 -- -- 63
2018-01-19 12:00:00 9.5 3 Oeste 6 Noroeste 0 -- -- 73
2018-01-19 11:00:00 7.9 0 Calma 4 Sudeste 0 -- -- 78
2018-01-19 10:00:00 6.6 0 Calma 6 Sudeste 0 -- -- 80
2018-01-19 09:00:00 5.4 4 Este 12 Sudeste 0 -- -- 81
2018-01-19 08:00:00 5.3 5 Sudeste 12 Sudeste 0 -- -- 81
2018-01-19 07:00:00 5.4 0 Calma 5 Sudeste 0 -- -- 82
2018-01-19 06:00:00 5.5 0 Calma 5 Sudeste 0 -- -- 83
2018-01-19 05:00:00 6.7 6 Sudeste 9 Sudeste 0 -- -- 76
2018-01-19 04:00:00 6.4 5 Sudeste 8 Sudeste 0 -- -- 79
2018-01-19 03:00:00 6.5 3 Nordeste 6 Sudeste 0 -- -- 79
2018-01-19 02:00:00 7.2 0 Calma 8 Sudeste 0 -- -- 77
2018-01-19 01:00:00 7.5 5 Este 8 Sudeste 0 -- -- 75
2018-01-19 00:00:00 7.5 3 Sudeste 10 Este 0 -- -- 76
2018-01-18 23:00:00 6.9 0 Calma 6 Norte 0 -- -- 82
2018-01-18 22:00:00 7.2 0 Calma 8 Sudeste 0 -- -- 81
2018-01-18 21:00:00 7.8 5 Sudeste 8 Sudeste 0 -- -- 80
2018-01-18 20:00:00 8 2 Este 5 Nordeste 0 -- -- 78
2018-01-18 19:00:00 9.1 2 Nordeste 6 Norte 0 -- -- 74
2018-01-18 18:00:00 10.8 3 Norte 10 Norte 0 -- -- 67
2018-01-18 17:00:00 12.6 3 Norte 9 Oeste 0 -- -- 61
2018-01-18 16:00:00 14.6 3 Sudeste 11 Sudeste 0 -- -- 46
2018-01-18 15:00:00 15.6 6 Sur 14 Sudeste 0 -- -- 46
2018-01-18 14:00:00 14.7 6 Sur 12 Sudeste 0 -- -- 46
2018-01-18 13:00:00 14.9 5 Sur 15 Sur 0 -- -- 48
2018-01-18 12:00:00 13.2 4 Sur 10 Sur 0 -- -- 52
2018-01-18 11:00:00 10.3 4 Sur 11 Sudeste 0 -- -- 61
2018-01-18 10:00:00 6.9 6 Sudeste 12 Sudeste 0 -- -- 72
2018-01-18 09:00:00 5.3 5 Sudeste 10 Sudeste 0 -- -- 73
2018-01-18 08:00:00 5.5 5 Sudeste 12 Este 0 -- -- 68
2018-01-18 07:00:00 4.8 5 Sudeste 13 Sudeste 0 -- -- 65
2018-01-18 06:00:00 6.5 9 Sudeste 15 Sudeste 0 -- -- 62
2018-01-18 05:00:00 7.9 11 Sudeste 18 Sudeste 0 -- -- 54
2018-01-18 04:00:00 6.2 8 Sudoeste 17 Sudoeste 0 -- -- 70
2018-01-18 03:00:00 6.8 3 Sudeste 11 Sudeste 0 -- -- 72
2018-01-18 02:00:00 7.7 5 Sudeste 12 Sur 0 -- -- 66
2018-01-18 01:00:00 7 8 Sudeste 11 Sudeste 0 -- -- 69
2018-01-18 00:00:00 6.8 5 Sudoeste 12 Sudeste 0 -- -- 71
2018-01-17 23:00:00 7.4 8 Sudeste 14 Sudeste 0 -- -- 73
2018-01-17 22:00:00 8 4 Este 15 Sudeste 0 -- -- 75
2018-01-17 21:00:00 7.5 2 Sudeste 10 Sudeste 0 -- -- 81
2018-01-17 20:00:00 8.3 0 Calma 4 Sudeste 0 -- -- 83
2018-01-17 19:00:00 10.4 0 Calma 9 Noroeste 0 -- -- 77
2018-01-17 18:00:00 14 5 Noroeste 13 Noroeste 0 -- -- 65
2018-01-17 17:00:00 16 8 Norte 15 Norte 0 -- -- 57
2018-01-17 16:00:00 17.3 7 Norte 13 Noroeste 0 -- -- 51
2018-01-17 15:00:00 17 4 Noroeste 13 Norte 0 -- -- 46
2018-01-17 14:00:00 15.9 3 Noroeste 9 Noroeste 0 -- -- 50
2018-01-17 13:00:00 13.7 3 Oeste 9 Norte 0 -- -- 57
2018-01-17 12:00:00 11.5 4 Norte 9 Sudeste 0 -- -- 67
2018-01-17 11:00:00 8.9 2 Sur 8 Sudeste 0 -- -- 72
2018-01-17 10:00:00 4.5 0 Calma 9 Norte 0 -- -- 86
2018-01-17 09:00:00 4.4 3 Nordeste 20 Sudeste 0 -- -- 82
2018-01-17 08:00:00 4.7 13 Sudeste 21 Sudeste 0 -- -- 79
2018-01-17 07:00:00 4.1 8 Sudeste 10 Este 0 -- -- 88
2018-01-17 06:00:00 3 0 Calma 3 Norte 0 -- -- 91
2018-01-17 05:00:00 3.3 0 Calma 7 Noroeste 0 -- -- 88
2018-01-17 04:00:00 3.9 4 Sudeste 6 Este 0 -- -- 90
2018-01-17 03:00:00 4.4 0 Calma 8 Sudeste 0 -- -- 88
2018-01-17 02:00:00 4.6 0 Calma 10 Sudeste 0 -- -- 87
2018-01-17 01:00:00 5.1 5 Sudeste 10 Sudeste 0 -- -- 87
2018-01-17 00:00:00 5.4 3 Este 8 Sudeste 0 -- -- 84
2018-01-16 23:00:00 5.2 0 Calma 6 Norte 0 -- -- 84
2018-01-16 22:00:00 5.3 0 Calma 6 Sudeste 0 -- -- 84
2018-01-16 21:00:00 5.7 4 Norte 6 Nordeste 0 -- -- 82
2018-01-16 20:00:00 6.2 3 Nordeste 6 Nordeste 0 -- -- 81
2018-01-16 19:00:00 8.2 3 Norte 14 Noroeste 0 -- -- 70
2018-01-16 18:00:00 11 7 Noroeste 17 Noroeste 0 -- -- 59
2018-01-16 17:00:00 12.4 9 Noroeste 18 Noroeste 0 -- -- 50
2018-01-16 16:00:00 12.7 10 Noroeste 20 Norte 0 -- -- 53
2018-01-16 15:00:00 12.6 6 Noroeste 19 Noroeste 0 -- -- 52
2018-01-16 14:00:00 11.5 11 Noroeste 18 Noroeste 0 -- -- 48
2018-01-16 13:00:00 10.1 10 Noroeste 18 Noroeste 0 -- -- 46
2018-01-16 12:00:00 8.7 6 Noroeste 10 Noroeste 0 -- -- 59
2018-01-16 11:00:00 6.6 7 Sudeste 13 Sudeste 0 -- -- 70
2018-01-16 10:00:00 1.6 0 Calma 12 Sudeste 0 -- -- 88
2018-01-16 09:00:00 0.4 0 Calma 16 Sudeste 0 -- -- 86
2018-01-16 08:00:00 0.9 8 Sudeste 13 Sudeste 0 -- -- 87
2018-01-16 07:00:00 -0.2 4 Sudeste 8 Sudeste 0 -- -- 92
2018-01-16 06:00:00 0 3 Sudeste 9 Este 0 -- -- 89
2018-01-16 05:00:00 0.4 5 Sudeste 8 Sudeste 0 -- -- 89
2018-01-16 04:00:00 1.1 5 Sudeste 10 Este 0 -- -- 86
2018-01-16 03:00:00 0.9 3 Sudeste 9 Sudeste 0 -- -- 89
2018-01-16 02:00:00 0.9 3 Sudeste 7 Este 0 -- -- 92
2018-01-16 01:00:00 1.2 2 Sur 12 Sudeste 0 -- -- 91
2018-01-16 00:00:00 1.8 4 Sur 12 Sudeste 0 -- -- 88
2018-01-15 23:00:00 1.9 6 Sudeste 9 Sudeste 0 -- -- 90
2018-01-15 22:00:00 1.8 2 Sudeste 8 Sudeste 0 -- -- 94
2018-01-15 21:00:00 2.7 3 Sudeste 6 Sudeste 0 -- -- 96
2018-01-15 20:00:00 3.1 2 Oeste 4 Oeste 0 -- -- 94
2018-01-15 19:00:00 4.5 0 Calma 5 Oeste 0 -- -- 89
2018-01-15 18:00:00 7.1 5 Oeste 9 Oeste 0 -- -- 76
2018-01-15 17:00:00 8.2 5 Noroeste 10 Oeste 0 -- -- 71
2018-01-15 16:00:00 6.7 5 Oeste 14 Noroeste 0 -- -- 82
2018-01-15 15:00:00 7.7 5 Noroeste 20 Noroeste 0 -- -- 77
2018-01-15 14:00:00 8.3 6 Norte 23 Este 0 -- -- 72
2018-01-15 13:00:00 8 9 Este 22 Este 0 -- -- 67
2018-01-15 12:00:00 5.6 3 Sudeste 12 Oeste 0 -- -- 81
2018-01-15 11:00:00 3 4 Sur 15 Sudeste 0 -- -- 94
2018-01-15 10:00:00 0.4 3 Sudeste 7 Sudeste 0 -- -- 98
2018-01-15 09:00:00 -0.6 0 Calma -- -- 0 -- -- 98
2018-01-15 08:00:00 -0.4 0 Calma -- -- 0 -- -- 98
2018-01-15 07:00:00 -1.1 0 Calma -- -- 0 -- -- 97
2018-01-15 06:00:00 -0.3 0 Calma -- -- 0 -- -- 99
2018-01-15 05:00:00 -0.4 0 Calma 9 Sudeste 0 -- -- 97
2018-01-15 04:00:00 0 0 Calma 9 Sudeste 0 -- -- 98
2018-01-15 03:00:00 0.8 0 Calma 4 Norte 0 -- -- 99
2018-01-15 02:00:00 0.4 0 Calma 4 Este 0 -- -- 98
2018-01-15 01:00:00 1.1 0 Calma 9 Noroeste 0 -- -- 98
2018-01-15 00:00:00 1.7 3 Noroeste 10 Noroeste 0.2 -- -- 98
2018-01-14 23:00:00 1.8 3 Norte 10 Noroeste 0 -- -- 98
2018-01-14 22:00:00 2 6 Noroeste 11 Noroeste 0.2 -- -- 98
2018-01-14 21:00:00 2.1 4 Noroeste 9 Noroeste 0 -- -- 97
2018-01-14 20:00:00 2.2 4 Noroeste 13 Noroeste 0 -- -- 97
2018-01-14 19:00:00 2.4 6 Noroeste 13 Noroeste 0.2 -- -- 97
2018-01-14 18:00:00 2.9 5 Norte 12 Noroeste 0.6 -- -- 95
2018-01-14 17:00:00 3.7 4 Noroeste 8 Noroeste 1 -- -- 94
2018-01-14 16:00:00 3.9 0 Calma 6 Sudoeste 0.2 -- -- 94
2018-01-14 15:00:00 3.6 4 Oeste 13 Sur 0.8 -- -- 95
2018-01-14 14:00:00 3.8 8 Noroeste 14 Noroeste 0.8 -- -- 94
2018-01-14 13:00:00 4.7 3 Oeste 9 Oeste 1.2 -- -- 90
2018-01-14 12:00:00 5.1 5 Sudeste 17 Sudeste 0 -- -- 90
2018-01-14 11:00:00 4.7 6 Sudeste 11 Este 0 -- -- 90
2018-01-14 10:00:00 3.9 4 Sudeste 9 Sudeste 0 -- -- 95
2018-01-14 09:00:00 3.5 0 Calma 4 Sudeste 0 -- -- 96
2018-01-14 08:00:00 3.6 0 Calma 3 Sudeste 0 -- -- 96
2018-01-14 07:00:00 3.5 2 Sudeste 4 Noroeste 0 -- -- 97
2018-01-14 06:00:00 3.6 2 Noroeste 9 Oeste 0 -- -- 97
2018-01-14 05:00:00 3.8 5 Oeste 11 Oeste 0.2 -- -- 97
2018-01-14 04:00:00 3.9 0 Calma 4 Sudoeste 0 -- -- 97
2018-01-14 03:00:00 4 0 Calma 10 Sudoeste 0 -- -- 96
2018-01-14 02:00:00 4.1 3 Noroeste 14 Sudoeste 0 -- -- 96
2018-01-14 01:00:00 4 2 Este 4 Sur 0 -- -- 96
2018-01-14 00:00:00 3.8 0 Calma 6 Noroeste 0 -- -- 97
2018-01-13 23:00:00 3.6 2 Noroeste 5 Oeste 0 -- -- 96
2018-01-13 22:00:00 4 0 Calma 10 Oeste 0 -- -- 95
2018-01-13 21:00:00 4.6 4 Noroeste 12 Norte 0 -- -- 94
2018-01-13 20:00:00 5 6 Oeste 11 Oeste 0 -- -- 94
2018-01-13 19:00:00 4.8 2 Noroeste 12 Sudeste 0 -- -- 92
2018-01-13 18:00:00 4.5 3 Sudeste 8 Sudeste 0 -- -- 93
2018-01-13 17:00:00 4 3 Este 10 Noroeste 0.8 -- -- 91
2018-01-13 16:00:00 6 0 Calma 12 Noroeste 0.6 -- -- 80
2018-01-13 15:00:00 7.5 0 Calma 11 Norte 0 -- -- 57
2018-01-13 14:00:00 8 6 Norte 13 Norte 0 -- -- 58
2018-01-13 13:00:00 7.8 6 Norte 13 Norte 0 -- -- 57
2018-01-13 12:00:00 6.7 3 Este 12 Sur 0 -- -- 52
2018-01-13 11:00:00 5.9 7 Sudeste 14 Sudeste 0 -- -- 54
2018-01-13 10:00:00 5.4 5 Sur 12 Sudeste 0 -- -- 56
2018-01-13 09:00:00 3.7 7 Sudeste 13 Sudeste 0 -- -- 53
2018-01-13 08:00:00 3.1 5 Sudeste 9 Sudeste 0 -- -- 59
2018-01-13 07:00:00 3.2 0 Calma 12 Sudeste 0 -- -- 65
2018-01-13 06:00:00 2.3 5 Sudeste 8 Sudoeste 0 -- -- 63
2018-01-13 05:00:00 3.8 4 Sur 18 Sudeste 0 -- -- 54
2018-01-13 04:00:00 3.5 8 Sudeste 21 Sudeste 0 -- -- 54
2018-01-13 03:00:00 2.8 5 Sudeste 11 Sudeste 0 -- -- 59
2018-01-13 02:00:00 2.8 5 Sudeste 12 Sudeste 0 -- -- 65
2018-01-13 01:00:00 2.6 6 Sudeste 14 Sudeste 0 -- -- 71
2018-01-13 00:00:00 2.9 10 Sudeste 17 Sudeste 0 -- -- 69
2018-01-12 23:00:00 3.6 8 Sudeste 12 Sudeste 0 -- -- 72
2018-01-12 22:00:00 3.3 4 Sudeste 8 Sudeste 0 -- -- 78
2018-01-12 21:00:00 4.3 0 Calma 6 Sudeste 0 -- -- 77
2018-01-12 20:00:00 4.6 0 Calma 5 Sudeste 0 -- -- 81
2018-01-12 19:00:00 5.8 0 Calma 5 Nordeste 0 -- -- 76
2018-01-12 18:00:00 9 0 Calma 8 Noroeste 0 -- -- 60
2018-01-12 17:00:00 10.7 0 Calma 5 Oeste 0 -- -- 44
2018-01-12 16:00:00 11.7 2 Sur 11 Sur 0 -- -- 38
2018-01-12 15:00:00 10.2 5 Sur 15 Sur 0 -- -- 50
2018-01-12 14:00:00 8.6 8 Sudeste 17 Sudeste 0 -- -- 64
2018-01-12 13:00:00 7.6 6 Sudeste 13 Sudeste 0 -- -- 62
2018-01-12 12:00:00 5.9 3 Sudoeste 6 Oeste 0 -- -- 74
2018-01-12 11:00:00 3.4 0 Calma 7 Sudeste 0.2 -- -- 85
2018-01-12 10:00:00 0.9 4 Sudeste 8 Sudeste 0 -- -- 87
2018-01-12 09:00:00 -0.9 6 Sudeste 14 Sudeste 0 -- -- 91
2018-01-12 08:00:00 -0.2 2 Sudeste 9 Sudeste 0 -- -- 89
2018-01-12 07:00:00 0.7 5 Este 11 Este 0 -- -- 87
2018-01-12 06:00:00 0.7 8 Sudeste 10 Sudeste 0 -- -- 89
2018-01-12 05:00:00 0.4 5 Sudeste 10 Sudeste 0 -- -- 94
2018-01-12 04:00:00 0.2 0 Calma 5 Sudeste 0 -- -- 94
2018-01-12 03:00:00 0.2 0 Calma 3 Norte 0 -- -- 94
2018-01-12 02:00:00 1.1 0 Calma 6 Este 0 -- -- 93
2018-01-12 01:00:00 0.9 0 Calma 6 Este 0 -- -- 95
2018-01-12 00:00:00 1.3 0 Calma 4 Noroeste 0 -- -- 95
2018-01-11 23:00:00 2.1 0 Calma 10 Norte 0 -- -- 93
2018-01-11 22:00:00 3 6 Norte 12 Norte 0 -- -- 95
2018-01-11 21:00:00 3.7 7 Noroeste 22 Noroeste 0 -- -- 92
2018-01-11 20:00:00 4.6 10 Noroeste 32 Noroeste 0.2 -- -- 96
2018-01-11 19:00:00 5.1 14 Noroeste 26 Noroeste 0.8 -- -- 95
2018-01-11 18:00:00 5.5 10 Noroeste 27 Oeste 0.2 -- -- 91
2018-01-11 17:00:00 5.1 14 Noroeste 27 Noroeste 0 -- -- 95
2018-01-11 16:00:00 4.9 17 Noroeste 36 Noroeste 0 -- -- 92
2018-01-11 15:00:00 5.7 17 Noroeste 31 Noroeste 0 -- -- 87
2018-01-11 14:00:00 5.5 18 Noroeste 34 Oeste 0.2 -- -- 91
2018-01-11 13:00:00 4.7 16 Noroeste 31 Oeste 0 -- -- 94
2018-01-11 12:00:00 4.4 12 Noroeste 22 Noroeste 0 -- -- 92
2018-01-11 11:00:00 4.1 9 Noroeste 22 Oeste 0 -- -- 94
2018-01-11 10:00:00 3.4 5 Noroeste 10 Noroeste 0 -- -- 94
2018-01-11 09:00:00 2.7 4 Noroeste 9 Noroeste 0 -- -- 98
2018-01-11 08:00:00 2.2 4 Noroeste 18 Noroeste 0 -- -- 96
2018-01-11 07:00:00 3.1 10 Noroeste 21 Noroeste 0 -- -- 96
2018-01-11 06:00:00 3.6 12 Noroeste 22 Noroeste 0 -- -- 95
2018-01-11 05:00:00 3.8 13 Noroeste 27 Noroeste 0 -- -- 93
2018-01-11 04:00:00 4.3 15 Noroeste 35 Noroeste 0 -- -- 92
2018-01-11 03:00:00 4.7 15 Noroeste 32 Noroeste 0 -- -- 94
2018-01-11 02:00:00 5 17 Noroeste 31 Noroeste 0 -- -- 95
2018-01-11 01:00:00 5.5 20 Noroeste 34 Oeste 0 -- -- 93
2018-01-11 00:00:00 6.2 19 Noroeste 43 Oeste 0 -- -- 94
2018-01-10 23:00:00 6.9 22 Noroeste 52 Noroeste 2.8 -- -- 96
2018-01-10 22:00:00 8 20 Oeste 34 Oeste 3.6 -- -- 96
2018-01-10 21:00:00 8.2 12 Oeste 25 Oeste 0 -- -- 89
2018-01-10 20:00:00 7.8 3 Sudoeste 14 Oeste 0 -- -- 87
2018-01-10 19:00:00 7.4 5 Oeste 20 Oeste 0 -- -- 89
2018-01-10 18:00:00 7.9 10 Noroeste 22 Oeste 0 -- -- 85
2018-01-10 17:00:00 9.4 9 Oeste 27 Noroeste 0 -- -- 80
2018-01-10 16:00:00 8.6 10 Noroeste 24 Oeste 0 -- -- 84
2018-01-10 15:00:00 8.3 14 Noroeste 27 Noroeste 0 -- -- 85
2018-01-10 14:00:00 7.7 11 Noroeste 22 Noroeste 0 -- -- 91
2018-01-10 13:00:00 8.1 8 Noroeste 18 Noroeste 0 -- -- 88
2018-01-10 12:00:00 7.5 8 Noroeste 16 Norte 0 -- -- 98
2018-01-10 11:00:00 6.4 6 Noroeste 15 Noroeste 0 -- -- 99
2018-01-10 10:00:00 6.1 8 Noroeste 32 Noroeste 0 -- -- 98
2018-01-10 09:00:00 6.4 16 Noroeste 29 Noroeste 0.2 -- -- 98
2018-01-10 08:00:00 7 13 Noroeste 25 Oeste 0.8 -- -- 98
2018-01-10 07:00:00 7 10 Oeste 21 Oeste 0 -- -- 96
2018-01-10 06:00:00 7.3 5 Oeste 22 Oeste 0.2 -- -- 98
2018-01-10 05:00:00 7.5 6 Noroeste 16 Oeste 2.6 -- -- 98
2018-01-10 04:00:00 7.3 4 Sur 19 Sudeste 1.8 -- -- 97
2018-01-10 03:00:00 6.9 10 Sudeste 27 Este 4.4 -- -- 96
2018-01-10 02:00:00 6.7 13 Sudeste 31 Sudeste 1.8 -- -- 96
2018-01-10 01:00:00 6.4 15 Sudeste 31 Este 1.2 -- -- 96
2018-01-10 00:00:00 6.2 11 Sudeste 32 Este 0 -- -- 95
2018-01-09 23:00:00 5.8 11 Sudeste 26 Sudeste 0.2 -- -- 95
2018-01-09 22:00:00 5.1 8 Sudeste 28 Este 1.6 -- -- 93
2018-01-09 21:00:00 4.4 12 Sudeste 23 Este 0.8 -- -- 85
2018-01-09 20:00:00 4.8 6 Sudeste 18 Sudeste 0.2 -- -- 84
2018-01-09 19:00:00 4.7 4 Sur 12 Sudeste 0 -- -- 81
2018-01-09 18:00:00 4.9 5 Sudeste 14 Sudeste 0 -- -- 78
2018-01-09 17:00:00 5.2 4 Sudeste 9 Sudeste 0 -- -- 80
2018-01-09 16:00:00 5 2 Este 7 Sudeste 0 -- -- 83
2018-01-09 15:00:00 4.3 4 Sudeste 12 Sudeste 0 -- -- 87
2018-01-09 14:00:00 3.7 4 Sudeste 14 Sudeste 0 -- -- 90
2018-01-09 13:00:00 2.2 5 Sudeste 14 Sudeste 0 -- -- 99
2018-01-09 12:00:00 1 8 Sudeste 22 Sudeste 0 -- -- 99
2018-01-09 11:00:00 0.1 11 Sudeste 21 Este 0 -- -- 99
2018-01-09 10:00:00 -1.4 9 Sudeste 21 Sudeste 0 -- -- 98
2018-01-09 09:00:00 -1 9 Sudeste 13 Sudeste 0 -- -- 96
2018-01-09 08:00:00 -1.3 4 Sudeste 8 Sudeste 0 -- -- 97
2018-01-09 07:00:00 -0.7 6 Sudeste 12 Sudeste 0 -- -- 95
2018-01-09 06:00:00 -0.3 6 Sudeste 10 Sudeste 0 -- -- 97
2018-01-09 05:00:00 -0.6 0 Calma 6 Sudeste 0 -- -- 98
2018-01-09 04:00:00 0.1 4 Sudeste 6 Sudeste 0 -- -- 98
2018-01-09 03:00:00 0.2 0 Calma 4 Sudeste 0 -- -- 98
2018-01-09 02:00:00 0.3 0 Calma 5 Sudeste 0 -- -- 98
2018-01-09 01:00:00 0.4 0 Calma 3 Nordeste 0 -- -- 97
2018-01-09 00:00:00 0.7 0 Calma 4 Nordeste 0 -- -- 97
2018-01-08 23:00:00 1.1 0 Calma 4 Norte 0 -- -- 96
2018-01-08 22:00:00 1.7 0 Calma 2 Nordeste 0 -- -- 96
2018-01-08 21:00:00 2.2 0 Calma 5 Norte 0 -- -- 94
2018-01-08 20:00:00 3 3 Norte 8 Norte 0 -- -- 93
2018-01-08 19:00:00 3.9 2 Nordeste 6 Noroeste 0 -- -- 89
2018-01-08 18:00:00 4.8 4 Norte 10 Noroeste 0 -- -- 84
2018-01-08 17:00:00 5.7 3 Sur 12 Sudoeste 0 -- -- 75
2018-01-08 16:00:00 6.3 5 Sudeste 13 Sur 0 -- -- 71
2018-01-08 15:00:00 6.7 5 Sur 18 Sudeste 0.2 -- -- 74
2018-01-08 14:00:00 6.3 9 Sudeste 20 Este 0 -- -- 74
2018-01-08 13:00:00 4.8 6 Sudeste 14 Sudeste 0 -- -- 83
2018-01-08 12:00:00 3.3 4 Sur 22 Sudeste 1.2 -- -- 90
2018-01-08 11:00:00 2.3 9 Sudeste 19 Sudeste 1 -- -- 94
2018-01-08 10:00:00 1.1 4 Sudeste 14 Sudeste 0 -- -- 95
2018-01-08 09:00:00 0.5 6 Sudeste 12 Sudeste 0 -- -- 96
2018-01-08 08:00:00 0.5 3 Sur 12 Este 0 -- -- 95
2018-01-08 07:00:00 0.6 5 Este 14 Este 0 -- -- 95
2018-01-08 06:00:00 0.6 5 Sudeste 12 Sudeste 0.2 -- -- 96
2018-01-08 05:00:00 0.5 3 Sur 7 Sudeste 0 -- -- 96
2018-01-08 04:00:00 0.6 0 Calma 7 Sudeste 0.2 -- -- 96
2018-01-08 03:00:00 0.5 0 Calma 13 Sudeste 0 -- -- 97
2018-01-08 02:00:00 0.4 3 Sudeste 6 Sudeste 0 -- -- 97
2018-01-08 01:00:00 0.4 3 Sudeste 8 Sudeste 0 -- -- 97
2018-01-08 00:00:00 0.8 4 Sudeste 9 Sudeste 0 -- -- 95
2018-01-07 23:00:00 0.9 3 Sudeste 10 Este 0 -- -- 95
2018-01-07 22:00:00 1.3 3 Sudeste 7 Sur 0 -- -- 93
2018-01-07 21:00:00 1.4 2 Sudeste 4 Sudeste 0 -- -- 91
2018-01-07 20:00:00 1.4 3 Sudeste 6 Sudeste 0 -- -- 90
2018-01-07 19:00:00 1.3 0 Calma 5 Sudoeste 0 -- -- 88
2018-01-07 18:00:00 1.5 2 Oeste 5 Sudoeste 0 -- -- 86
2018-01-07 17:00:00 1.7 2 Sudoeste 8 Oeste 0 -- -- 87
2018-01-07 16:00:00 1.7 4 Sudoeste 11 Oeste 0.2 -- -- 87
2018-01-07 15:00:00 2.4 3 Sudoeste 12 Sur 0.4 -- -- 75
2018-01-07 14:00:00 2.3 4 Sudoeste 12 Sur 0.6 -- -- 74
2018-01-07 13:00:00 2.8 5 Sur 17 Sudeste 0.6 -- -- 72
2018-01-07 12:00:00 2.2 8 Sudeste 20 Este 0.6 -- -- 71
2018-01-07 11:00:00 0.2 2 Sur 9 Sudeste 0 -- -- 86
2018-01-07 10:00:00 -0.6 5 Sudeste 12 Sudeste 0 -- -- 90
2018-01-07 09:00:00 -1.4 4 Sudeste 11 Sudeste 0 -- -- 93
2018-01-07 08:00:00 -2 5 Sudeste 11 Sudeste 0 -- -- 93
2018-01-07 07:00:00 -2.3 5 Sudeste 9 Sudeste 0 -- -- 92
2018-01-07 06:00:00 -1.2 6 Sudeste 9 Este 0 -- -- 92
2018-01-07 05:00:00 -0.7 0 Calma 7 Oeste 0 -- -- 88
2018-01-07 04:00:00 -0.1 2 Noroeste 6 Oeste 0 -- -- 86
2018-01-07 03:00:00 0.4 2 Oeste 10 Sudoeste 0 -- -- 84
2018-01-07 02:00:00 0.4 3 Noroeste 11 Oeste 0 -- -- 86
2018-01-07 01:00:00 0.9 6 Oeste 20 Oeste 0.2 -- -- 81
2018-01-07 00:00:00 1.9 11 Oeste 32 Noroeste 0.2 -- -- 78
2018-01-06 23:00:00 2.3 16 Oeste 34 Oeste 0.4 -- -- 77
2018-01-06 22:00:00 2.3 16 Noroeste 32 Oeste 0.4 -- -- 83
2018-01-06 21:00:00 2.4 17 Oeste 30 Oeste 0.4 -- -- 86
2018-01-06 20:00:00 2.6 18 Oeste 36 Oeste 0.8 -- -- 86
2018-01-06 19:00:00 2.6 20 Oeste 32 Oeste 0.8 -- -- 88
2018-01-06 18:00:00 2.3 11 Oeste 26 Noroeste 1.4 -- -- 95
2018-01-06 17:00:00 2.1 11 Noroeste 29 Noroeste 1.4 -- -- 98
2018-01-06 16:00:00 1.7 12 Noroeste 27 Noroeste 1.4 -- -- 99
2018-01-06 15:00:00 1.1 14 Noroeste 27 Noroeste 0.8 -- -- 98
2018-01-06 14:00:00 0.3 0 Calma -- -- 0 -- -- 98
2018-01-06 13:00:00 0.1 0 Calma 8 Noroeste 0 -- -- 97
2018-01-06 12:00:00 0.2 5 Noroeste 17 Norte 0 -- -- 96
2018-01-06 11:00:00 1.1 7 Noroeste 20 Noroeste 1.8 -- -- 92
2018-01-06 10:00:00 5.1 7 Sudeste 17 Este 0.2 -- -- 93
2018-01-06 09:00:00 4.8 6 Sudeste 27 Sudeste 1.2 -- -- 93
2018-01-06 08:00:00 5.6 11 Sudeste 26 Sudeste 2 -- -- 88
2018-01-06 07:00:00 6.1 6 Sur 25 Sudoeste 1.6 -- -- 90
2018-01-06 06:00:00 7.9 9 Sur 25 Este 0 -- -- 73
2018-01-06 05:00:00 7.7 12 Sudeste 31 Sudeste 0 -- -- 80
2018-01-06 04:00:00 7.5 12 Sudeste 25 Este 0 -- -- 83
2018-01-06 03:00:00 7.7 10 Este 28 Este 0 -- -- 82
2018-01-06 02:00:00 7.7 13 Este 27 Este 0 -- -- 82
2018-01-06 01:00:00 8 10 Este 21 Este 0 -- -- 81
2018-01-06 00:00:00 7.7 9 Sudeste 20 Este 0 -- -- 83
2018-01-05 23:00:00 7.1 5 Sur 16 Este 0 -- -- 84
2018-01-05 22:00:00 7.3 4 Sudeste 14 Este 0 -- -- 84
2018-01-05 21:00:00 6.4 5 Sudeste 17 Sudeste 0 -- -- 86
2018-01-05 20:00:00 6.5 4 Sudeste 9 Sudeste 0 -- -- 86
2018-01-05 19:00:00 8.6 5 Sudeste 13 Sudeste 0 -- -- 76
2018-01-05 18:00:00 9.3 3 Sudeste 13 Sudoeste 0 -- -- 74
2018-01-05 17:00:00 10 4 Sudoeste 14 Oeste 0 -- -- 72
2018-01-05 16:00:00 9.9 3 Sudoeste 15 Noroeste 0 -- -- 72
2018-01-05 15:00:00 9.4 5 Oeste 10 Oeste 0 -- -- 79
2018-01-05 14:00:00 8.8 3 Sudoeste 15 Oeste 0 -- -- 80
2018-01-05 13:00:00 8.5 6 Oeste 21 Oeste 0 -- -- 81
2018-01-05 12:00:00 8 10 Oeste 18 Oeste 0 -- -- 86
2018-01-05 11:00:00 7.7 0 Calma 4 Oeste 0 -- -- 88
2018-01-05 10:00:00 7.4 3 Sur 7 Sur 0 -- -- 90
2018-01-05 09:00:00 7.3 3 Oeste 10 Noroeste 0 -- -- 93
2018-01-05 08:00:00 7.2 6 Noroeste 13 Noroeste 0 -- -- 90
2018-01-05 07:00:00 7.2 2 Oeste 5 Sudoeste 0 -- -- 95
2018-01-05 06:00:00 7.4 0 Calma 6 Noroeste 0 -- -- 95
2018-01-05 05:00:00 7.7 3 Norte 11 Noroeste 0 -- -- 97
2018-01-05 04:00:00 7.9 5 Noroeste 10 Noroeste 0 -- -- 96
2018-01-05 03:00:00 7.7 4 Noroeste 8 Noroeste 0 -- -- 98
2018-01-05 02:00:00 7.8 0 Calma 4 Noroeste 0 -- -- 99
2018-01-05 01:00:00 8 0 Calma 4 Este 0 -- -- 99
2018-01-05 00:00:00 8.1 0 Calma 4 Noroeste 0 -- -- 99
2018-01-04 23:00:00 8.1 0 Calma 8 Noroeste 0 -- -- 99
2018-01-04 22:00:00 8.1 3 Noroeste 14 Noroeste 0 -- -- 99
2018-01-04 21:00:00 7.8 8 Noroeste 16 Noroeste 0 -- -- 99
2018-01-04 20:00:00 7.7 8 Noroeste 16 Noroeste 0 -- -- 98
2018-01-04 19:00:00 8 6 Noroeste 12 Noroeste 0 -- -- 97
2018-01-04 18:00:00 8.6 7 Noroeste 14 Noroeste 0 -- -- 95
2018-01-04 17:00:00 9.8 6 Noroeste 19 Noroeste 0 -- -- 91
2018-01-04 16:00:00 12 9 Noroeste 18 Norte 0 -- -- 81
2018-01-04 15:00:00 13 10 Norte 20 Norte 0 -- -- 73
2018-01-04 14:00:00 13.9 9 Norte 19 Norte 0 -- -- 67
2018-01-04 13:00:00 14.4 6 Norte 12 Norte 0 -- -- 65
2018-01-04 12:00:00 12.6 3 Oeste 5 Oeste 0 -- -- 81
2018-01-04 11:00:00 9.4 0 Calma 4 Sudeste 0 -- -- 98
2018-01-04 10:00:00 4.7 0 Calma 5 Sudeste 0 -- -- 97
2018-01-04 09:00:00 5.4 3 Este 10 Sudeste 0 -- -- 94
2018-01-04 08:00:00 4.6 4 Sudeste 12 Sudeste 0 -- -- 95
2018-01-04 07:00:00 4.1 6 Sudeste 8 Sudeste 0 -- -- 99
2018-01-04 06:00:00 3.4 0 Calma 16 Sudeste 0 -- -- 98
2018-01-04 05:00:00 4.9 11 Sudeste 19 Sudeste 0 -- -- 100
2018-01-04 04:00:00 4.5 13 Sudeste 21 Sudeste 0 -- -- 99
2018-01-04 03:00:00 5.8 2 Sur 12 Noroeste 0 -- -- 99
2018-01-04 02:00:00 6 6 Noroeste 13 Norte 0 -- -- 99
2018-01-04 01:00:00 6.1 5 Noroeste 12 Noroeste 0 -- -- 99
2018-01-04 00:00:00 4.7 0 Calma 16 Sudeste 0 -- -- 98
2018-01-03 23:00:00 5.7 12 Sudeste 24 Sudeste 0 -- -- 98
2018-01-03 22:00:00 6.4 12 Sudeste 21 Este 0 -- -- 97
2018-01-03 21:00:00 7.7 2 Norte 10 Noroeste 0 -- -- 96
2018-01-03 20:00:00 8.2 4 Norte 8 Norte 0 -- -- 95
2018-01-03 19:00:00 8.5 4 Noroeste 11 Noroeste 0 -- -- 94
2018-01-03 18:00:00 9.1 8 Noroeste 20 Noroeste 0 -- -- 91
2018-01-03 17:00:00 11.1 10 Noroeste 23 Noroeste 0 -- -- 83
2018-01-03 16:00:00 12.1 10 Noroeste 19 Norte 0 -- -- 79
2018-01-03 15:00:00 12 5 Noroeste 14 Noroeste 0 -- -- 80
2018-01-03 14:00:00 11.2 8 Noroeste 14 Norte 0 -- -- 81
2018-01-03 13:00:00 10 6 Oeste 12 Norte 0 -- -- 86
2018-01-03 12:00:00 8 5 Oeste 11 Noroeste 0 -- -- 97
2018-01-03 11:00:00 6.2 2 Oeste 5 Oeste 0 -- -- 99
2018-01-03 10:00:00 5.4 3 Oeste 11 Noroeste 0 -- -- 99
2018-01-03 09:00:00 4.2 2 Noroeste 9 Noroeste 0 -- -- 98
2018-01-03 08:00:00 3.7 4 Noroeste 10 Norte 0 -- -- 98
2018-01-03 07:00:00 2.9 0 Calma 6 Noroeste 0 -- -- 97
2018-01-03 06:00:00 3.6 0 Calma 5 Norte 0 -- -- 97
2018-01-03 05:00:00 3.7 0 Calma 4 Sudeste 0 -- -- 96
2018-01-03 04:00:00 4.1 0 Calma 5 Nordeste 0 -- -- 95
2018-01-03 03:00:00 4.1 0 Calma 8 Sudeste 0 -- -- 95
2018-01-03 02:00:00 4.9 0 Calma 6 Norte 0 -- -- 95
2018-01-03 01:00:00 5 2 Norte 9 Norte 0 -- -- 94
2018-01-03 00:00:00 4.6 2 Noroeste 12 Noroeste 0 -- -- 93
2018-01-02 23:00:00 4.4 3 Noroeste 6 Noroeste 0 -- -- 93
2018-01-02 22:00:00 5.1 0 Calma 6 Norte 0 -- -- 90
2018-01-02 21:00:00 5.9 3 Norte 10 Norte 0 -- -- 89
2018-01-02 20:00:00 6.7 4 Norte 13 Norte 0 -- -- 86
2018-01-02 19:00:00 7.1 3 Norte 13 Noroeste 0 -- -- 84
2018-01-02 18:00:00 8.5 8 Norte 19 Norte 0 -- -- 79
2018-01-02 17:00:00 10.3 10 Noroeste 18 Noroeste 0 -- -- 73
2018-01-02 16:00:00 10.5 10 Noroeste 23 Norte 0 -- -- 72
2018-01-02 15:00:00 10.3 12 Noroeste 27 Noroeste 0 -- -- 74
2018-01-02 14:00:00 9.7 14 Noroeste 22 Noroeste 0 -- -- 76
2018-01-02 13:00:00 9.2 10 Norte 19 Norte 0 -- -- 78
2018-01-02 12:00:00 8.6 12 Noroeste 19 Noroeste 0 -- -- 78
2018-01-02 11:00:00 7 9 Noroeste 17 Noroeste 0 -- -- 85
2018-01-02 10:00:00 3.3 0 Calma 13 Sudeste 0 -- -- 83
2018-01-02 09:00:00 3.6 10 Sudeste 16 Sudeste 0 -- -- 87
2018-01-02 08:00:00 3.2 8 Sudeste 14 Sudeste 0 -- -- 88
2018-01-02 07:00:00 2.7 9 Sudeste 15 Sudeste 0 -- -- 91
2018-01-02 06:00:00 2.5 5 Sudeste 8 Sudeste 0 -- -- 92
2018-01-02 05:00:00 2.3 0 Calma 13 Sudeste 0 -- -- 85
2018-01-02 04:00:00 2.2 8 Sudeste 12 Sudeste 0 -- -- 86
2018-01-02 03:00:00 2.2 0 Calma 5 Sudeste 0 -- -- 86
2018-01-02 02:00:00 2.8 3 Sudeste 12 Sudeste 0 -- -- 82
2018-01-02 01:00:00 3.5 6 Este 8 Este 0 -- -- 77
2018-01-02 00:00:00 3.2 0 Calma 4 Este 0 -- -- 77
2018-01-01 23:00:00 3.7 0 Calma 8 Sudeste 0 -- -- 72
2018-01-01 22:00:00 4.5 2 Nordeste 4 Este 0 -- -- 66
2018-01-01 21:00:00 4.3 0 Calma 6 Norte 0 -- -- 65
2018-01-01 20:00:00 5.1 2 Norte 5 Norte 0 -- -- 61
2018-01-01 19:00:00 6.1 0 Calma 4 Norte 0 -- -- 62
2018-01-01 18:00:00 9.4 4 Norte 22 Norte 0 -- -- 45
2018-01-01 17:00:00 11.2 10 Noroeste 23 Noroeste 0 -- -- 47
2018-01-01 16:00:00 12.7 9 Noroeste 22 Oeste 0 -- -- 34
2018-01-01 15:00:00 13.2 11 Noroeste 19 Norte 0 -- -- 28
2018-01-01 14:00:00 13 9 Oeste 15 Oeste 0 -- -- 32
2018-01-01 13:00:00 12.1 3 Norte 10 Este 0 -- -- 44
2018-01-01 12:00:00 10.6 4 Sudeste 6 Sudeste 0 -- -- 49
2018-01-01 11:00:00 7.6 2 Oeste 4 Oeste 0 -- -- 64
2018-01-01 10:00:00 2.9 0 Calma 9 Sudeste 0 -- -- 82
2018-01-01 09:00:00 2.9 5 Sudeste 8 Este 0 -- -- 75
2018-01-01 08:00:00 2.2 4 Sudeste 17 Sudeste 0 -- -- 83
2018-01-01 07:00:00 2.9 7 Sudeste 13 Sudeste 0 -- -- 91
2018-01-01 06:00:00 3.3 6 Este 10 Este 0 -- -- 89
2018-01-01 05:00:00 3.5 3 Sudeste 7 Sudeste 0 -- -- 93
2018-01-01 04:00:00 4.4 3 Norte 7 Norte 0 -- -- 96
2018-01-01 03:00:00 5.4 3 Noroeste 10 Noroeste 0 -- -- 96
2018-01-01 02:00:00 5.7 5 Noroeste 14 Noroeste 0 -- -- 95
2018-01-01 01:00:00 6.4 5 Noroeste 14 Noroeste 0 -- -- 91
2018-01-01 00:00:00 7.2 10 Noroeste 28 Oeste 0 -- -- 87
2017-12-31 23:00:00 8.3 17 Noroeste 44 Oeste 0 -- -- 90
2017-12-31 22:00:00 9.5 18 Noroeste 36 Oeste 0 -- -- 90
2017-12-31 21:00:00 8.9 7 Noroeste 17 Noroeste 0 -- -- 93
2017-12-31 20:00:00 8.4 6 Norte 12 Norte 0 -- -- 93
2017-12-31 19:00:00 8.8 8 Noroeste 18 Oeste 0 -- -- 88
2017-12-31 18:00:00 9.3 6 Oeste 21 Noroeste 0 -- -- 81
2017-12-31 17:00:00 9.7 11 Oeste 28 Noroeste 0 -- -- 78
2017-12-31 16:00:00 9.5 12 Oeste 27 Oeste 0 -- -- 85
2017-12-31 15:00:00 10.2 14 Oeste 28 Oeste 0 -- -- 83
2017-12-31 14:00:00 10.7 6 Oeste 16 Oeste 0 -- -- 82
2017-12-31 13:00:00 10.3 3 Sudeste 13 Oeste 0 -- -- 81
2017-12-31 12:00:00 9.5 5 Oeste 14 Oeste 0 -- -- 90
2017-12-31 11:00:00 9 3 Noroeste 10 Sudoeste 0 -- -- 91
2017-12-31 10:00:00 7.5 0 Calma 6 Sudeste 0 -- -- 82
2017-12-31 09:00:00 7.4 8 Sudeste 11 Sudeste 0 -- -- 79
2017-12-31 08:00:00 8.1 6 Este 9 Sudeste 0 -- -- 74
2017-12-31 07:00:00 7.4 4 Sudeste 11 Este 0 -- -- 74
2017-12-31 06:00:00 6.1 0 Calma 10 Sudeste 0 -- -- 79
2017-12-31 05:00:00 5.6 0 Calma 6 Sudeste 0 -- -- 80
2017-12-31 04:00:00 6.4 4 Sudeste 11 Sudeste 0 -- -- 77
2017-12-31 03:00:00 8.4 8 Sudeste 16 Sudeste 0 -- -- 70
2017-12-31 02:00:00 8.2 13 Sudeste 19 Sudeste 0 -- -- 74
2017-12-31 01:00:00 8.3 10 Sudeste 15 Sudeste 0 -- -- 75